Harbor Springs, Michigan
Current Conditions -  °F | °C
As of 12:35 PM on Friday 19 Dec 2014 (Local Time) from KMGN Reporting Station
Clear Clear  
Wind Chill: 26°   Ceiling: Unl
Heat Index: 26°   Visibility: 10mi
Dew Point: 19°   Wind: 3mph
Humidity: 75%   Direction: 250°WSW
Pressure: 30.26"   Gusts: NA
Location:  45.43°N, 84.99°W
Report Text: KMGN 191735Z AUTO 25003KT 10SM CLR M03/M07 A3026 RMK AO2 T10361075
Loading
Personal Weather Stations






























Interactive Weather Map New forecast layout! Learn more

10-Day Weather Forecast

Advertisements
Track Severe Weather on mobile